Latest Weather Observations for Leinster

IDW60801

Issued at 11:43 pm WST Tuesday 18 February 2020 (issued every 10 minutes, with the page automatically refreshed every 10 minutes)

About weather observations | Map of weather stations | Latest weather observations for WA | Other Formats
Station Details ID: 012314 Name: LEINSTER AERO Lat: -27.84 Lon: 120.70 Height: 497.0 m
Data from the previous 72 hours. | See also: Recent months at Leinster
Date/Time
WST
Temp
°C
App
Temp
°C
Dew
Point
°C
Rel
Hum
%
Delta-T
°C
Wind Press
QNH
hPa
Press
MSL
hPa
Rain since
9am
mm
Dir  Spd
km/h
Gust
km/h
Spd
kts
Gust
kts
18/11:30pm 22.7 20.6 13.7 56 5.3 ENE 17 20 9 11 1015.6 1012.0 0.0
18/11:00pm 22.9 22.4 13.7 56 5.5 E 9 15 5 8 1015.8 1012.2 0.0
18/10:30pm 23.0 21.8 12.9 53 5.9 ESE 11 15 6 8 1015.8 1012.2 0.0
18/10:00pm 23.0 21.8 12.9 53 5.9 ESE 11 15 6 8 1016.0 1012.4 0.0
18/09:30pm 23.0 21.7 12.6 52 6.1 E 11 17 6 9 1015.9 1012.3 0.0
18/09:00pm 23.1 21.9 12.7 52 6.1 E 11 20 6 11 1015.5 1011.9 0.0
18/08:30pm 23.3 20.5 12.6 51 6.3 E 19 26 10 14 1015.1 1011.4 0.0
18/08:00pm 23.1 21.9 12.7 52 6.1 E 11 20 6 11 1015.3 1011.6 0.0
18/07:30pm 23.0 20.3 12.9 53 5.9 E 19 26 10 14 1014.9 1011.2 0.0
18/07:00pm 23.1 21.4 13.6 55 5.6 ENE 15 19 8 10 1015.5 1011.9 0.0
18/06:30pm 23.4 21.9 13.0 52 6.1 E 13 20 7 11 1015.2 1011.5 0.0
18/06:00pm 23.3 21.3 13.8 55 5.7 E 17 24 9 13 1015.3 1011.6 0.0
18/05:30pm 23.4 21.3 14.7 58 5.3 E 19 28 10 15 1015.6 1012.0 0.0
18/05:00pm 23.7 21.6 13.6 53 6.0 E 17 24 9 13 1016.0 1012.4 0.0
18/04:30pm 24.1 21.5 13.3 51 6.4 ENE 19 26 10 14 1016.3 1012.6 0.0
18/04:00pm 25.4 22.4 13.6 48 7.1 ENE 22 28 12 15 1016.0 1012.4 0.0
18/03:30pm 25.3 22.2 12.2 44 7.7 E 20 26 11 14 1016.7 1013.0 0.0
18/03:00pm 26.4 22.9 12.1 41 8.4 ENE 22 30 12 16 1017.0 1013.3 0.0
18/02:30pm 26.4 22.1 10.9 38 8.9 ENE 24 37 13 20 1017.3 1013.6 0.0
18/02:00pm 26.7 22.4 10.8 37 9.2 ENE 24 37 13 20 1017.6 1014.0 0.0
18/01:30pm 26.9 22.1 10.2 35 9.5 ENE 26 37 14 20 1018.0 1014.4 0.0
18/01:00pm 26.9 23.3 10.6 36 9.4 E 20 28 11 15 1017.8 1014.2 0.0
18/12:30pm 25.8 20.9 10.0 37 8.9 E 26 39 14 21 1017.7 1014.1 0.0
18/12:00pm 24.6 19.5 9.3 38 8.5 E 26 37 14 20 1018.0 1014.4 0.0
18/11:30am 24.1 18.8 10.0 41 7.9 E 28 41 15 22 1018.5 1014.8 0.0
18/11:00am 24.3 18.6 9.8 40 8.1 E 30 39 16 21 1018.8 1015.1 0.0
18/10:30am 23.1 17.8 9.8 43 7.4 E 28 43 15 23 1019.2 1015.6 0.0
18/10:00am 23.3 19.2 10.0 43 7.4 E 22 35 12 19 1019.6 1016.0 0.0
18/09:30am 22.6 17.7 10.1 45 7.0 E 26 39 14 21 1019.7 1016.1 0.0
18/09:00am 22.4 17.5 9.9 45 6.9 E 26 41 14 22 1019.9 1016.3 0.0
18/08:30am 21.7 16.6 9.3 45 6.8 E 26 35 14 19 1019.8 1016.2 0.0
18/08:00am 21.7 17.0 9.3 45 6.8 E 24 35 13 19 1019.6 1016.0 0.0
18/07:30am 22.1 17.8 9.3 44 7.0 E 22 37 12 20 1019.5 1015.9 0.0
18/07:00am 22.5 17.9 9.6 44 7.1 E 24 39 13 21 1019.4 1015.8 0.0
18/06:30am 22.2 18.2 10.4 47 6.6 E 22 32 12 17 1019.1 1015.4 0.0
18/06:00am 22.1 18.4 10.3 47 6.6 E 20 32 11 17 1018.5 1014.8 0.0
18/05:30am 22.7 19.5 9.8 44 7.2 E 17 28 9 15 1018.1 1014.5 0.0
18/05:00am 23.2 20.1 10.3 44 7.2 E 17 24 9 13 1017.9 1014.3 0.0
18/04:30am 23.6 20.1 11.0 45 7.2 E 20 32 11 17 1017.7 1014.1 0.0
18/04:00am 24.4 21.4 12.0 46 7.2 E 19 30 10 16 1017.0 1013.3 0.0
18/03:30am 25.1 23.4 12.3 45 7.5 E 13 20 7 11 1016.6 1012.9 0.0
18/03:00am 25.5 22.6 12.4 44 7.7 E 19 28 10 15 1016.6 1012.9 0.0
18/02:30am 25.8 23.2 11.9 42 8.1 E 17 30 9 16 1016.2 1012.5 0.0
18/02:00am 26.2 23.0 11.9 41 8.4 E 20 37 11 20 1015.9 1012.3 0.0
18/01:30am 26.5 23.0 12.2 41 8.4 E 22 32 12 17 1016.0 1012.4 0.0
18/01:00am 26.8 23.3 12.1 40 8.7 E 22 33 12 18 1015.9 1012.3 0.0
18/12:30am 27.1 24.6 12.3 39 8.8 E 17 26 9 14 1016.0 1012.4 0.0
18/12:00am 27.4 24.2 11.8 38 9.2 E 20 32 11 17 1016.0 1012.4 0.0
 
Date/Time
WST
Temp
°C
App
Temp
°C
Dew
Point
°C
Rel
Hum
%
Delta-T
°C
Wind Press
QNH
hPa
Press
MSL
hPa
Rain since
9am
mm
Dir  Spd
km/h
Gust
km/h
Spd
kts
Gust
kts
17/11:30pm 27.7 24.2 12.1 38 9.2 E 22 33 12 18 1016.4 1012.7 0.0
17/11:00pm 28.1 24.3 12.5 38 9.3 E 24 35 13 19 1016.3 1012.6 0.0
17/10:30pm 28.8 24.5 12.2 35 9.9 E 26 43 14 23 1015.8 1012.2 0.0
17/10:00pm 29.3 25.8 12.3 35 10.1 E 22 37 12 20 1015.9 1012.3 0.0
17/09:30pm 29.6 25.5 11.6 33 10.6 ESE 24 33 13 18 1015.9 1012.3 0.0
17/09:00pm 29.9 26.3 11.9 33 10.7 ESE 22 32 12 17 1015.9 1012.3 0.0
17/08:30pm 30.3 25.9 11.8 32 11.0 ESE 26 37 14 20 1015.8 1012.2 0.0
17/08:00pm 30.8 26.8 11.7 31 11.4 ESE 24 35 13 19 1015.5 1011.9 0.0
17/07:30pm 31.2 27.1 11.6 30 11.7 ESE 24 35 13 19 1015.5 1011.9 0.0
17/07:00pm 31.7 28.4 11.5 29 12.0 ESE 20 30 11 16 1014.9 1011.2 0.0
17/06:30pm 32.2 28.5 11.4 28 12.4 ESE 22 33 12 18 1014.1 1010.4 0.0
17/06:00pm 33.0 29.5 10.9 26 13.1 ESE 20 32 11 17 1013.6 1009.9 0.0
17/05:30pm 33.5 29.6 10.8 25 13.5 ESE 22 32 12 17 1013.6 1009.9 0.0
17/05:00pm 33.7 29.4 10.9 25 13.6 SE 24 35 13 19 1013.4 1009.7 0.0
17/04:30pm 34.7 31.5 11.8 25 13.9 SE 20 28 11 15 1013.5 1009.8 0.0
17/04:00pm 34.5 31.2 11.6 25 13.8 ESE 20 35 11 19 1013.7 1010.1 0.0
17/03:30pm 34.1 31.2 12.4 26 13.2 E 19 26 10 14 1014.0 1010.3 0.0
17/03:00pm 33.3 31.5 13.4 30 12.3 E 15 22 8 12 1014.2 1010.5 0.0
17/02:30pm 33.5 31.6 13.0 29 12.6 ESE 15 28 8 15 1014.4 1010.7 0.0
17/02:00pm 33.6 31.5 13.6 29 12.4 E 17 32 9 17 1014.9 1011.2 0.0
17/01:30pm 32.9 30.0 14.0 32 11.7 ESE 22 50 12 27 1015.2 1011.5 0.0
17/01:00pm 31.3 29.3 14.0 35 10.7 E 17 30 9 16 1015.6 1012.0 0.0
17/12:30pm 31.1 29.4 14.7 37 10.2 ESE 17 33 9 18 1015.7 1012.1 0.0
17/12:00pm 30.1 27.0 14.6 39 9.6 SE 24 39 13 21 1015.9 1012.3 0.0
17/11:30am 29.1 26.2 15.2 42 8.7 ESE 24 37 13 20 1016.0 1012.4 0.0
17/11:00am 28.7 26.4 15.6 45 8.2 ESE 22 35 12 19 1016.4 1012.7 0.0
17/10:30am 28.6 25.7 16.2 47 7.8 SE 26 35 14 19 1016.6 1012.9 0.0
17/10:00am 27.9 26.2 16.2 49 7.4 ESE 20 30 11 16 1016.7 1013.0 0.0
17/09:30am 27.4 25.5 16.7 52 6.8 ESE 22 32 12 17 1016.7 1013.0 0.0
17/09:00am 26.5 24.6 16.7 55 6.2 ESE 22 35 12 19 1016.5 1012.8 2.6
17/08:30am 25.3 22.9 16.4 57 5.6 ESE 24 35 13 19 1016.5 1012.8 2.6
17/08:00am 24.5 20.8 16.0 59 5.3 SE 30 37 16 20 1016.0 1012.4 2.6
17/07:30am 24.2 20.1 15.9 59 5.1 SE 32 43 17 23 1015.8 1012.2 2.4
17/07:00am 23.7 20.4 16.0 62 4.8 SE 28 37 15 20 1015.3 1011.6 2.4
17/06:30am 23.5 20.5 15.8 62 4.8 SE 26 35 14 19 1014.9 1011.2 2.4
17/06:00am 23.6 20.6 15.9 62 4.8 SE 26 35 14 19 1014.3 1010.6 2.4
17/05:30am 24.3 21.7 15.8 59 5.3 SE 24 32 13 17 1013.7 1010.1 2.4
17/05:00am 25.2 23.3 15.2 54 6.2 SE 19 30 10 16 1013.2 1009.5 2.4
17/04:30am 25.6 24.3 14.7 51 6.7 SE 15 20 8 11 1012.8 1009.1 2.4
17/04:00am 25.3 25.4 14.4 50 6.6 SE 7 9 4 5 1012.5 1008.8 2.4
17/03:30am 25.9 25.1 14.1 48 7.2 SE 11 13 6 7 1012.3 1008.6 2.4
17/03:00am 26.1 26.0 14.9 50 6.9 SSE 9 11 5 6 1012.3 1008.6 2.4
17/02:30am 26.6 26.5 15.9 51 6.7 SE 11 13 6 7 1012.3 1008.6 2.4
17/02:00am 27.1 25.9 15.1 47 7.4 SE 15 19 8 10 1012.3 1008.6 2.4
17/01:30am 27.7 26.2 14.3 43 8.2 SE 15 20 8 11 1012.4 1008.7 2.4
17/01:00am 27.6 27.4 16.6 51 7.0 SE 13 19 7 10 1012.6 1008.9 2.4
17/12:30am 28.4 27.7 15.3 45 8.2 ESE 13 22 7 12 1013.1 1009.4 2.4
17/12:00am 27.1 28.2 19.7 64 4.9 ESE 13 20 7 11 1012.9 1009.2 2.4
 
Date/Time
WST
Temp
°C
App
Temp
°C
Dew
Point
°C
Rel
Hum
%
Delta-T
°C
Wind Press
QNH
hPa
Press
MSL
hPa
Rain since
9am
mm
Dir  Spd
km/h
Gust
km/h
Spd
kts
Gust
kts
16/11:56pm 26.5 27.1 18.6 62 5.1 ESE 13 17 7 9 1012.9 1009.2 2.4
16/11:38pm 27.5 27.7 15.8 48 7.3 SE 9 15 5 8 1013.4 1009.7 2.2
16/11:30pm 31.3 29.5 12.2 31 11.5 SSE 13 22 7 12 1013.1 1009.4 0.0
16/11:00pm 31.7 29.7 11.5 29 12.0 SSE 13 19 7 10 1012.8 1009.1 0.0
16/10:30pm 31.8 29.8 11.6 29 12.1 S 13 17 7 9 1012.5 1008.8 0.0
16/10:00pm 31.9 29.2 11.7 29 12.1 S 17 22 9 12 1012.5 1008.8 0.0
16/09:30pm 32.1 29.1 11.8 29 12.2 S 19 28 10 15 1012.3 1008.6 0.0
16/09:00pm 32.3 29.5 12.5 30 12.0 SSW 19 24 10 13 1012.1 1008.4 0.0
16/08:30pm 32.5 29.2 12.7 30 12.0 S 22 30 12 16 1011.9 1008.2 0.0
16/08:00pm 33.3 30.4 12.9 29 12.5 S 20 30 11 16 1011.5 1007.8 0.0
16/07:30pm 34.2 31.8 12.5 27 13.2 SW 17 20 9 11 1010.9 1007.2 0.0
16/07:00pm 34.7 32.0 13.0 27 13.4 SSW 19 26 10 14 1010.4 1006.7 0.0
16/06:30pm 35.4 32.5 13.0 26 13.8 SSW 20 28 11 15 1010.0 1006.2 0.0
16/06:00pm 36.3 33.1 13.1 25 14.4 SSW 22 32 12 17 1009.6 1005.9 0.0
16/05:30pm 37.3 34.7 13.3 23 15.0 WSW 19 26 10 14 1009.5 1005.8 0.0
16/05:00pm 37.5 34.8 13.5 24 15.1 WSW 20 32 11 17 1009.3 1005.6 0.0
16/04:30pm 37.9 35.1 13.2 23 15.4 WSW 20 32 11 17 1009.2 1005.5 0.0
16/04:00pm 38.3 35.6 13.5 23 15.6 SW 20 28 11 15 1009.2 1005.5 0.0
16/03:30pm 38.2 35.8 12.7 21 15.8 WSW 17 28 9 15 1009.2 1005.5 0.0
16/03:00pm 38.3 36.3 12.8 22 15.9 W 15 26 8 14 1009.3 1005.6 0.0
16/02:30pm 38.9 36.1 12.6 21 16.4 WSW 19 32 10 17 1009.5 1005.8 0.0
16/02:00pm 38.2 36.6 12.7 21 15.9 SSW 13 24 7 13 1009.8 1006.0 0.0
16/01:30pm 38.8 35.8 11.8 20 16.6 SW 19 32 10 17 1010.1 1006.4 0.0
16/01:00pm 37.0 34.0 11.8 22 15.4 SW 19 32 10 17 1010.4 1006.7 0.0
16/12:30pm 37.7 35.7 11.6 21 15.9 SW 13 20 7 11 1010.7 1007.0 0.0
16/12:00pm 36.4 33.6 11.3 22 15.2 SW 17 24 9 13 1011.1 1007.4 0.0
16/11:30am 35.8 34.5 11.4 23 14.7 SSW 9 17 5 9 1011.4 1007.7 0.0
16/11:00am 35.0 34.1 12.6 26 13.7 S 9 17 5 9 1011.9 1008.2 0.0
16/10:30am 34.1 33.5 13.5 28 12.8 S 9 17 5 9 1012.3 1008.6 0.0
16/10:00am 32.6 31.0 13.8 32 11.6 SSE 15 20 8 11 1012.5 1008.8 0.0
16/09:30am 30.5 29.2 13.7 35 10.3 S 13 20 7 11 1012.5 1008.8 0.0
16/09:00am 30.1 29.0 14.2 38 9.8 SSE 13 17 7 9 1012.6 1008.9 0.2
16/08:30am 28.4 26.0 13.9 41 8.8 SSE 19 24 10 13 1012.2 1008.5 0.2
16/08:00am 28.4 24.9 13.5 40 9.0 SSE 24 28 13 15 1012.1 1008.4 0.2
16/07:30am 28.0 25.6 13.9 42 8.6 S 19 28 10 15 1012.2 1008.5 0.2
16/07:00am 26.9 26.3 14.6 46 7.5 SSW 11 15 6 8 1012.3 1008.6 0.2
16/06:30am 25.9 27.0 16.7 57 5.8 WSW 6 9 3 5 1012.1 1008.4 0.2
16/06:00am 26.4 26.8 15.4 50 6.8 SE 7 13 4 7 1011.7 1008.0 0.2
16/05:30am 26.5 25.1 15.5 50 6.8 S 17 24 9 13 1010.9 1007.2 0.2
16/05:00am 27.5 27.0 15.8 48 7.3 ESE 13 15 7 8 1010.6 1006.9 0.2
16/04:30am 28.3 28.7 15.2 44 8.1 SW 7 9 4 5 1010.3 1006.6 0.0
16/04:00am 28.2 28.3 16.5 49 7.4 S 11 13 6 7 1009.9 1006.1 0.0
16/03:30am 29.2 29.4 14.2 40 9.2 ESE 6 9 3 5 1009.8 1006.0 0.0
16/03:00am 29.9 29.2 13.2 36 10.2 SSW 9 17 5 9 1009.4 1005.7 0.0
16/02:30am 30.2 29.4 13.9 37 10.0 S 11 17 6 9 1009.1 1005.4 0.0
16/02:00am 30.4 30.4 15.3 40 9.5 SW 9 13 5 7 1009.1 1005.4 0.0
16/01:30am 30.9 31.2 16.1 41 9.4 SW 9 13 5 7 1009.1 1005.4 0.0
16/01:00am 31.3 31.6 16.9 42 9.3 WSW 11 19 6 10 1009.4 1005.7 0.0
16/12:30am 31.2 31.8 16.8 42 9.3 WNW 9 11 5 6 1009.3 1005.6 0.0
16/12:00am 32.3 33.0 16.2 38 10.3 WSW 7 13 4 7 1009.5 1005.8 0.0

Other formats

Comma delimited format used in spreadsheet applications
http://www.bom.gov.au/fwo/IDW60801/IDW60801.95448.axf

JavaScript Object Notation format (JSON) in row-major order
http://www.bom.gov.au/fwo/IDW60801/IDW60801.95448.json

Data quality

Most of these data are generated automatically and are frequently updated. Quality checks on data are not normally performed. It is possible for incorrect values to appear. Refer to information at About Latest Weather Observations and please check the disclaimer before using these data.